sensor_id;sensor_type;location;lat;lon;timestamp;pressure;altitude;pressure_sealevel;temperature;humidity
18201;BME280;9226;47.858;9.594;2022-07-10T00:07:07;95724.78;;;20.45;57.46
18201;BME280;9226;47.858;9.594;2022-07-10T00:17:26;95748.46;;;20.30;59.32
18201;BME280;9226;47.858;9.594;2022-07-10T00:27:46;95755.19;;;20.03;59.05
18201;BME280;9226;47.858;9.594;2022-07-10T00:48:33;95760.19;;;19.70;60.47
18201;BME280;9226;47.858;9.594;2022-07-10T01:14:35;95753.23;;;19.32;61.40
18201;BME280;9226;47.858;9.594;2022-07-10T01:24:56;95748.73;;;18.92;63.12
18201;BME280;9226;47.858;9.594;2022-07-10T01:35:14;95743.33;;;18.79;62.85
18201;BME280;9226;47.858;9.594;2022-07-10T01:40:20;95743.34;;;18.63;63.35
18201;BME280;9226;47.858;9.594;2022-07-10T01:56:01;95732.40;;;18.40;65.20
18201;BME280;9226;47.858;9.594;2022-07-10T02:06:20;95725.50;;;18.37;64.76
18201;BME280;9226;47.858;9.594;2022-07-10T02:16:46;95730.56;;;18.36;64.93
18201;BME280;9226;47.858;9.594;2022-07-10T02:27:07;95731.52;;;18.23;65.68
18201;BME280;9226;47.858;9.594;2022-07-10T02:37:25;95725.47;;;18.17;65.79
18201;BME280;9226;47.858;9.594;2022-07-10T02:47:44;95729.38;;;18.26;64.62
18201;BME280;9226;47.858;9.594;2022-07-10T03:03:18;95724.34;;;18.32;65.23
18201;BME280;9226;47.858;9.594;2022-07-10T03:13:35;95718.30;;;18.30;65.13
18201;BME280;9226;47.858;9.594;2022-07-10T03:29:08;95728.86;;;18.35;65.22
18201;BME280;9226;47.858;9.594;2022-07-10T03:39:28;95726.84;;;18.37;65.17
18201;BME280;9226;47.858;9.594;2022-07-10T03:49:47;95746.49;;;18.42;65.27
18201;BME280;9226;47.858;9.594;2022-07-10T04:00:12;95743.16;;;18.52;65.21
18201;BME280;9226;47.858;9.594;2022-07-10T04:15:45;95745.17;;;18.62;64.75
18201;BME280;9226;47.858;9.594;2022-07-10T04:26:03;95751.56;;;18.70;64.28
18201;BME280;9226;47.858;9.594;2022-07-10T04:36:23;95750.91;;;18.68;65.63
18201;BME280;9226;47.858;9.594;2022-07-10T04:46:41;95759.30;;;18.73;65.46
18201;BME280;9226;47.858;9.594;2022-07-10T04:56:58;95751.93;;;19.00;65.10
18201;BME280;9226;47.858;9.594;2022-07-10T05:07:18;95754.27;;;19.11;64.25
18201;BME280;9226;47.858;9.594;2022-07-10T05:17:36;95759.66;;;19.15;63.76
18201;BME280;9226;47.858;9.594;2022-07-10T05:33:12;95760.70;;;20.68;60.33
18201;BME280;9226;47.858;9.594;2022-07-10T05:43:32;95773.98;;;21.84;55.29
18201;BME280;9226;47.858;9.594;2022-07-10T05:59:07;95777.66;;;21.38;56.22
18201;BME280;9226;47.858;9.594;2022-07-10T06:14:40;95777.55;;;22.62;52.50
18201;BME280;9226;47.858;9.594;2022-07-10T06:30:14;95793.75;;;22.10;53.77
18201;BME280;9226;47.858;9.594;2022-07-10T06:35:20;95791.77;;;21.78;54.20
18201;BME280;9226;47.858;9.594;2022-07-10T06:45:37;95807.48;;;22.19;53.03
18201;BME280;9226;47.858;9.594;2022-07-10T06:55:59;95801.17;;;21.97;53.40
18201;BME280;9226;47.858;9.594;2022-07-10T07:06:23;95794.56;;;22.00;54.10
18201;BME280;9226;47.858;9.594;2022-07-10T07:16:41;95796.52;;;23.16;50.67
18201;BME280;9226;47.858;9.594;2022-07-10T07:32:17;95799.97;;;23.59;48.21
18201;BME280;9226;47.858;9.594;2022-07-10T07:47:52;95797.50;;;23.47;48.84
18201;BME280;9226;47.858;9.594;2022-07-10T07:58:14;95799.16;;;24.90;48.08
18201;BME280;9226;47.858;9.594;2022-07-10T08:13:48;95796.77;;;25.92;42.65
18201;BME280;9226;47.858;9.594;2022-07-10T08:24:06;95785.30;;;26.03;42.52
18201;BME280;9226;47.858;9.594;2022-07-10T08:34:27;95783.70;;;26.63;40.46
18201;BME280;9226;47.858;9.594;2022-07-10T08:44:47;95771.59;;;27.55;37.82
18201;BME280;9226;47.858;9.594;2022-07-10T08:55:07;95765.52;;;28.43;36.15
18201;BME280;9226;47.858;9.594;2022-07-10T09:05:27;95759.36;;;28.57;35.87
18201;BME280;9226;47.858;9.594;2022-07-10T09:15:50;95770.14;;;27.52;35.34
18201;BME280;9226;47.858;9.594;2022-07-10T09:26:16;95768.23;;;28.71;35.70
18201;BME280;9226;47.858;9.594;2022-07-10T09:36:35;95768.01;;;28.72;34.22
18201;BME280;9226;47.858;9.594;2022-07-10T09:41:41;95773.59;;;29.73;33.22
18201;BME280;9226;47.858;9.594;2022-07-10T09:51:59;95758.30;;;31.20;30.05
18201;BME280;9226;47.858;9.594;2022-07-10T10:02:28;95751.64;;;31.16;31.30
18201;BME280;9226;47.858;9.594;2022-07-10T10:12:51;95741.63;;;32.32;27.39
18201;BME280;9226;47.858;9.594;2022-07-10T10:28:25;95741.35;;;34.02;26.27
18201;BME280;9226;47.858;9.594;2022-07-10T10:39:10;95724.84;;;33.64;26.14
18201;BME280;9226;47.858;9.594;2022-07-10T10:49:52;95729.95;;;35.66;24.93
18201;BME280;9226;47.858;9.594;2022-07-10T11:00:32;95722.94;;;34.73;23.48
18201;BME280;9226;47.858;9.594;2022-07-10T11:16:14;95723.11;;;33.18;25.62
18201;BME280;9226;47.858;9.594;2022-07-10T11:26:40;95720.98;;;32.51;26.36
18201;BME280;9226;47.858;9.594;2022-07-10T11:36:57;95708.36;;;31.33;27.85
18201;BME280;9226;47.858;9.594;2022-07-10T11:47:15;95700.91;;;30.68;28.47
18201;BME280;9226;47.858;9.594;2022-07-10T12:03:14;95695.46;;;30.16;30.46
18201;BME280;9226;47.858;9.594;2022-07-10T12:18:35;95699.16;;;29.03;30.60
18201;BME280;9226;47.858;9.594;2022-07-10T12:28:56;95693.22;;;28.24;32.84
18201;BME280;9226;47.858;9.594;2022-07-10T12:39:19;95687.22;;;27.16;32.46
18201;BME280;9226;47.858;9.594;2022-07-10T12:49:55;95698.23;;;27.53;32.92
18201;BME280;9226;47.858;9.594;2022-07-10T13:05:39;95687.33;;;27.53;33.43
18201;BME280;9226;47.858;9.594;2022-07-10T13:15:58;95693.23;;;27.69;32.78
18201;BME280;9226;47.858;9.594;2022-07-10T13:26:17;95683.50;;;28.07;32.74
18201;BME280;9226;47.858;9.594;2022-07-10T13:31:23;95684.14;;;27.75;33.24
18201;BME280;9226;47.858;9.594;2022-07-10T13:36:28;95681.44;;;27.56;33.22
18201;BME280;9226;47.858;9.594;2022-07-10T13:52:01;95686.19;;;27.70;33.20
18201;BME280;9226;47.858;9.594;2022-07-10T14:02:21;95677.45;;;27.96;32.12
18201;BME280;9226;47.858;9.594;2022-07-10T14:07:26;95686.26;;;27.29;32.37
18201;BME280;9226;47.858;9.594;2022-07-10T14:28:18;95682.20;;;25.88;34.38
18201;BME280;9226;47.858;9.594;2022-07-10T14:33:23;95681.64;;;26.31;33.76
18201;BME280;9226;47.858;9.594;2022-07-10T14:43:43;95674.22;;;26.68;33.47
18201;BME280;9226;47.858;9.594;2022-07-10T14:54:01;95684.02;;;26.14;33.55
18201;BME280;9226;47.858;9.594;2022-07-10T15:04:19;95686.03;;;25.96;33.68
18201;BME280;9226;47.858;9.594;2022-07-10T15:14:38;95685.45;;;26.17;33.49
18201;BME280;9226;47.858;9.594;2022-07-10T15:24:56;95682.34;;;25.77;33.39
18201;BME280;9226;47.858;9.594;2022-07-10T15:35:14;95677.38;;;26.04;33.24
18201;BME280;9226;47.858;9.594;2022-07-10T15:45:34;95691.25;;;26.11;32.84
18201;BME280;9226;47.858;9.594;2022-07-10T15:55:52;95689.34;;;25.46;33.94
18201;BME280;9226;47.858;9.594;2022-07-10T16:06:10;95688.30;;;25.41;34.16
18201;BME280;9226;47.858;9.594;2022-07-10T16:16:30;95684.12;;;24.98;34.96
18201;BME280;9226;47.858;9.594;2022-07-10T16:26:50;95687.80;;;25.15;35.17
18201;BME280;9226;47.858;9.594;2022-07-10T16:42:24;95691.31;;;23.93;36.36
18201;BME280;9226;47.858;9.594;2022-07-10T16:47:30;95689.58;;;23.61;36.34
18201;BME280;9226;47.858;9.594;2022-07-10T17:08:18;95693.95;;;23.45;36.63
18201;BME280;9226;47.858;9.594;2022-07-10T17:18:36;95705.27;;;22.88;37.76
18201;BME280;9226;47.858;9.594;2022-07-10T17:39:36;95719.66;;;22.67;37.95
18201;BME280;9226;47.858;9.594;2022-07-10T17:50:01;95721.76;;;22.39;38.24
18201;BME280;9226;47.858;9.594;2022-07-10T17:55:10;95737.39;;;22.33;38.34
18201;BME280;9226;47.858;9.594;2022-07-10T18:05:33;95744.02;;;22.15;39.36
18201;BME280;9226;47.858;9.594;2022-07-10T18:15:53;95742.63;;;21.94;39.50
18201;BME280;9226;47.858;9.594;2022-07-10T18:26:14;95746.89;;;21.43;40.20
18201;BME280;9226;47.858;9.594;2022-07-10T18:31:20;95752.08;;;21.30;41.17
18201;BME280;9226;47.858;9.594;2022-07-10T18:36:25;95758.52;;;21.10;41.24
18201;BME280;9226;47.858;9.594;2022-07-10T18:46:43;95766.34;;;20.82;42.03
18201;BME280;9226;47.858;9.594;2022-07-10T18:51:48;95768.98;;;20.63;42.01
18201;BME280;9226;47.858;9.594;2022-07-10T19:02:07;95770.57;;;20.53;42.58
18201;BME280;9226;47.858;9.594;2022-07-10T19:17:40;95790.58;;;19.96;43.46
18201;BME280;9226;47.858;9.594;2022-07-10T19:28:00;95800.25;;;19.61;44.28
18201;BME280;9226;47.858;9.594;2022-07-10T19:38:21;95808.05;;;19.36;45.23
18201;BME280;9226;47.858;9.594;2022-07-10T19:48:41;95819.15;;;19.08;45.88
18201;BME280;9226;47.858;9.594;2022-07-10T19:59:01;95833.25;;;18.89;46.28
18201;BME280;9226;47.858;9.594;2022-07-10T20:09:21;95847.37;;;18.87;45.32
18201;BME280;9226;47.858;9.594;2022-07-10T20:19:51;95845.97;;;18.75;45.27
18201;BME280;9226;47.858;9.594;2022-07-10T20:30:12;95848.61;;;18.46;46.22
18201;BME280;9226;47.858;9.594;2022-07-10T20:35:17;95853.63;;;18.45;45.96
18201;BME280;9226;47.858;9.594;2022-07-10T20:45:37;95849.31;;;18.60;45.68
18201;BME280;9226;47.858;9.594;2022-07-10T21:11:37;95849.54;;;18.20;46.63
18201;BME280;9226;47.858;9.594;2022-07-10T21:21:57;95851.81;;;18.07;46.28
18201;BME280;9226;47.858;9.594;2022-07-10T21:32:14;95853.80;;;17.97;46.57
18201;BME280;9226;47.858;9.594;2022-07-10T21:42:32;95859.35;;;17.77;47.10
18201;BME280;9226;47.858;9.594;2022-07-10T21:52:52;95850.94;;;17.68;47.45
18201;BME280;9226;47.858;9.594;2022-07-10T22:03:13;95856.08;;;17.61;47.70
18201;BME280;9226;47.858;9.594;2022-07-10T22:13:32;95860.81;;;17.67;47.42
18201;BME280;9226;47.858;9.594;2022-07-10T22:23:53;95855.16;;;17.79;47.44
18201;BME280;9226;47.858;9.594;2022-07-10T22:34:13;95847.91;;;17.67;47.79
18201;BME280;9226;47.858;9.594;2022-07-10T22:44:31;95845.73;;;17.66;48.29
18201;BME280;9226;47.858;9.594;2022-07-10T22:54:49;95843.20;;;17.65;48.09
18201;BME280;9226;47.858;9.594;2022-07-10T23:05:09;95837.61;;;17.58;48.76
18201;BME280;9226;47.858;9.594;2022-07-10T23:20:42;95819.89;;;17.39;49.66
18201;BME280;9226;47.858;9.594;2022-07-10T23:31:02;95819.53;;;17.34;49.34
18201;BME280;9226;47.858;9.594;2022-07-10T23:41:20;95823.20;;;17.11;50.67
18201;BME280;9226;47.858;9.594;2022-07-10T23:51:38;95821.64;;;17.00;50.59
